sensor_id;sensor_type;location;lat;lon;timestamp;temperature;humidity
19888;DHT22;10106;51.332;12.336;2023-07-13T00:01:30;21.60;71.40
19888;DHT22;10106;51.332;12.336;2023-07-13T00:19:05;21.70;71.90
19888;DHT22;10106;51.332;12.336;2023-07-13T00:21:59;21.70;71.90
19888;DHT22;10106;51.332;12.336;2023-07-13T00:24:47;21.80;72.20
19888;DHT22;10106;51.332;12.336;2023-07-13T00:49:29;21.70;72.50
19888;DHT22;10106;51.332;12.336;2023-07-13T00:55:07;21.80;72.60
19888;DHT22;10106;51.332;12.336;2023-07-13T01:00:41;21.70;73.20
19888;DHT22;10106;51.332;12.336;2023-07-13T01:09:50;21.60;73.60
19888;DHT22;10106;51.332;12.336;2023-07-13T01:18:16;21.20;74.20
19888;DHT22;10106;51.332;12.336;2023-07-13T01:23:24;21.00;75.20
19888;DHT22;10106;51.332;12.336;2023-07-13T01:29:20;20.90;77.00
19888;DHT22;10106;51.332;12.336;2023-07-13T01:40:54;20.50;79.20
19888;DHT22;10106;51.332;12.336;2023-07-13T02:12:28;20.40;82.70
19888;DHT22;10106;51.332;12.336;2023-07-13T02:15:02;20.30;82.90
19888;DHT22;10106;51.332;12.336;2023-07-13T02:20:24;20.20;83.90
19888;DHT22;10106;51.332;12.336;2023-07-13T02:26:02;20.10;84.80
19888;DHT22;10106;51.332;12.336;2023-07-13T02:28:32;20.10;85.80
19888;DHT22;10106;51.332;12.336;2023-07-13T02:31:07;20.10;86.40
19888;DHT22;10106;51.332;12.336;2023-07-13T02:33:36;20.10;87.10
19888;DHT22;10106;51.332;12.336;2023-07-13T02:36:25;20.20;87.90
19888;DHT22;10106;51.332;12.336;2023-07-13T02:39:49;20.10;88.60
19888;DHT22;10106;51.332;12.336;2023-07-13T02:43:06;20.00;89.40
19888;DHT22;10106;51.332;12.336;2023-07-13T02:45:53;19.80;90.20
19888;DHT22;10106;51.332;12.336;2023-07-13T02:51:27;19.40;91.70
19888;DHT22;10106;51.332;12.336;2023-07-13T02:53:59;19.30;92.10
19888;DHT22;10106;51.332;12.336;2023-07-13T02:56:29;19.20;92.90
19888;DHT22;10106;51.332;12.336;2023-07-13T03:02:02;19.00;94.50
19888;DHT22;10106;51.332;12.336;2023-07-13T03:04:39;18.90;95.50
19888;DHT22;10106;51.332;12.336;2023-07-13T03:09:55;18.70;97.60
19888;DHT22;10106;51.332;12.336;2023-07-13T03:12:30;18.60;98.60
19888;DHT22;10106;51.332;12.336;2023-07-13T03:15:03;18.60;99.10
19888;DHT22;10106;51.332;12.336;2023-07-13T03:17:29;18.60;99.90
19888;DHT22;10106;51.332;12.336;2023-07-13T03:20:03;18.50;99.90
19888;DHT22;10106;51.332;12.336;2023-07-13T03:22:29;18.50;99.90
19888;DHT22;10106;51.332;12.336;2023-07-13T03:24:57;18.50;99.90
19888;DHT22;10106;51.332;12.336;2023-07-13T03:30:37;18.40;99.90
19888;DHT22;10106;51.332;12.336;2023-07-13T03:33:13;18.50;99.90
19888;DHT22;10106;51.332;12.336;2023-07-13T03:35:42;18.50;99.90
19888;DHT22;10106;51.332;12.336;2023-07-13T03:38:15;18.50;99.90
19888;DHT22;10106;51.332;12.336;2023-07-13T03:40:59;18.50;99.90
19888;DHT22;10106;51.332;12.336;2023-07-13T03:43:28;18.50;99.90
19888;DHT22;10106;51.332;12.336;2023-07-13T03:51:50;18.60;99.90
19888;DHT22;10106;51.332;12.336;2023-07-13T03:54:16;19.00;99.90
19888;DHT22;10106;51.332;12.336;2023-07-13T04:00:12;20.30;99.90
19888;DHT22;10106;51.332;12.336;2023-07-13T04:11:49;22.40;96.60
19888;DHT22;10106;51.332;12.336;2023-07-13T04:21:56;22.20;94.70
19888;DHT22;10106;51.332;12.336;2023-07-13T04:24:36;21.90;95.30
19888;DHT22;10106;51.332;12.336;2023-07-13T04:27:35;22.10;95.80
19888;DHT22;10106;51.332;12.336;2023-07-13T04:33:53;24.00;93.30
19888;DHT22;10106;51.332;12.336;2023-07-13T04:36:39;24.30;91.90
19888;DHT22;10106;51.332;12.336;2023-07-13T04:39:36;25.00;91.10
19888;DHT22;10106;51.332;12.336;2023-07-13T04:45:17;24.90;90.50
19888;DHT22;10106;51.332;12.336;2023-07-13T05:24:37;31.50;64.90
19888;DHT22;10106;51.332;12.336;2023-07-13T05:27:03;31.80;64.20
19888;DHT22;10106;51.332;12.336;2023-07-13T05:29:29;32.40;61.80
19888;DHT22;10106;51.332;12.336;2023-07-13T05:31:55;32.70;60.50
19888;DHT22;10106;51.332;12.336;2023-07-13T05:34:20;33.00;59.90
19888;DHT22;10106;51.332;12.336;2023-07-13T05:36:46;33.10;59.10
19888;DHT22;10106;51.332;12.336;2023-07-13T05:39:11;33.50;58.10
19888;DHT22;10106;51.332;12.336;2023-07-13T05:41:37;33.80;57.70
19888;DHT22;10106;51.332;12.336;2023-07-13T05:44:03;34.10;56.20
19888;DHT22;10106;51.332;12.336;2023-07-13T05:46:28;33.80;55.90
19888;DHT22;10106;51.332;12.336;2023-07-13T05:48:54;32.30;57.60
19888;DHT22;10106;51.332;12.336;2023-07-13T05:51:19;31.10;59.10
19888;DHT22;10106;51.332;12.336;2023-07-13T05:53:45;30.30;61.00
19888;DHT22;10106;51.332;12.336;2023-07-13T05:56:11;29.80;62.20
19888;DHT22;10106;51.332;12.336;2023-07-13T05:58:36;30.50;62.20
19888;DHT22;10106;51.332;12.336;2023-07-13T06:01:07;31.40;60.30
19888;DHT22;10106;51.332;12.336;2023-07-13T06:03:34;32.00;59.00
19888;DHT22;10106;51.332;12.336;2023-07-13T06:05:59;32.00;59.00
19888;DHT22;10106;51.332;12.336;2023-07-13T06:08:26;31.70;58.70
19888;DHT22;10106;51.332;12.336;2023-07-13T06:10:51;30.60;59.60
19888;DHT22;10106;51.332;12.336;2023-07-13T06:13:17;30.20;60.70
19888;DHT22;10106;51.332;12.336;2023-07-13T06:15:48;30.40;62.00
19888;DHT22;10106;51.332;12.336;2023-07-13T06:18:13;31.90;59.50
19888;DHT22;10106;51.332;12.336;2023-07-13T06:20:39;33.10;58.30
19888;DHT22;10106;51.332;12.336;2023-07-13T06:23:04;34.20;55.90
19888;DHT22;10106;51.332;12.336;2023-07-13T06:25:30;35.00;55.30
19888;DHT22;10106;51.332;12.336;2023-07-13T06:27:56;35.50;53.30
19888;DHT22;10106;51.332;12.336;2023-07-13T06:30:21;36.70;52.10
19888;DHT22;10106;51.332;12.336;2023-07-13T06:32:47;37.20;51.10
19888;DHT22;10106;51.332;12.336;2023-07-13T06:35:13;37.80;50.10
19888;DHT22;10106;51.332;12.336;2023-07-13T06:37:38;37.50;48.60
19888;DHT22;10106;51.332;12.336;2023-07-13T06:40:04;37.20;47.80
19888;DHT22;10106;51.332;12.336;2023-07-13T06:42:30;37.10;47.70
19888;DHT22;10106;51.332;12.336;2023-07-13T06:44:55;36.80;47.50
19888;DHT22;10106;51.332;12.336;2023-07-13T06:47:21;36.60;47.90
19888;DHT22;10106;51.332;12.336;2023-07-13T06:49:46;36.50;48.10
19888;DHT22;10106;51.332;12.336;2023-07-13T06:52:12;37.00;46.40
19888;DHT22;10106;51.332;12.336;2023-07-13T06:54:38;37.50;46.00
19888;DHT22;10106;51.332;12.336;2023-07-13T06:57:03;37.70;45.50
19888;DHT22;10106;51.332;12.336;2023-07-13T06:59:29;37.50;45.50
19888;DHT22;10106;51.332;12.336;2023-07-13T07:01:54;37.60;45.20
19888;DHT22;10106;51.332;12.336;2023-07-13T07:04:20;37.60;44.50
19888;DHT22;10106;51.332;12.336;2023-07-13T07:06:46;37.30;45.20
19888;DHT22;10106;51.332;12.336;2023-07-13T07:09:11;35.70;45.40
19888;DHT22;10106;51.332;12.336;2023-07-13T07:11:37;34.00;47.10
19888;DHT22;10106;51.332;12.336;2023-07-13T07:14:02;32.20;48.70
19888;DHT22;10106;51.332;12.336;2023-07-13T07:16:28;30.80;50.50
19888;DHT22;10106;51.332;12.336;2023-07-13T07:18:53;30.20;52.80
19888;DHT22;10106;51.332;12.336;2023-07-13T07:21:20;30.70;52.40
19888;DHT22;10106;51.332;12.336;2023-07-13T07:23:51;29.70;54.10
19888;DHT22;10106;51.332;12.336;2023-07-13T07:26:16;31.00;54.00
19888;DHT22;10106;51.332;12.336;2023-07-13T07:28:42;32.60;51.70
19888;DHT22;10106;51.332;12.336;2023-07-13T07:31:08;33.70;50.20
19888;DHT22;10106;51.332;12.336;2023-07-13T07:33:34;35.00;48.00
19888;DHT22;10106;51.332;12.336;2023-07-13T07:36:00;36.20;46.20
19888;DHT22;10106;51.332;12.336;2023-07-13T07:38:25;37.30;45.60
19888;DHT22;10106;51.332;12.336;2023-07-13T07:40:52;38.00;43.40
19888;DHT22;10106;51.332;12.336;2023-07-13T07:43:17;38.80;41.50
19888;DHT22;10106;51.332;12.336;2023-07-13T07:45:44;39.40;40.20
19888;DHT22;10106;51.332;12.336;2023-07-13T07:48:10;37.70;38.90
19888;DHT22;10106;51.332;12.336;2023-07-13T07:50:36;35.60;40.90
19888;DHT22;10106;51.332;12.336;2023-07-13T07:53:02;33.70;42.70
19888;DHT22;10106;51.332;12.336;2023-07-13T07:55:28;32.20;44.80
